PILOTS ONLINE: 427    ATC ONLINE: 89

EGXC - RAF Coningsby

Location

IATA QCY
City Coningsby
Country  United Kingdom
Latitude 53° 5' 34" N
Longitude 0° 9' 57" W
Elevation 25 ft
Type Medium Airport

Runways

07/25 9003 ft / 200 ft

Weather

METAR
2014/07/28 23:50
EGXC 282350Z 30006KT CAVOK 14/13 Q1017 BLU
TAF
2009/08/27 09:06
TAF 
      AMD EGXC 270906Z 2709/2803 CNL= TAF KNGU 2709/2809 VRB06KT 9999 FEW200 QNH3004INS 
      BECMG 2719/2721 08008KT FEW050 SCT100 SCT200 QNH3001INS T32/2718Z T24/2808Z

Outbound flights

Inbound flights